sensor_id;sensor_type;location;lat;lon;timestamp;temperature;humidity
20534;DHT22;12929;56.822;26.056;2022-07-29T00:01:58;14.30;99.90
20534;DHT22;12929;56.822;26.056;2022-07-29T00:04:26;14.30;99.90
20534;DHT22;12929;56.822;26.056;2022-07-29T00:06:53;14.30;99.90
20534;DHT22;12929;56.822;26.056;2022-07-29T00:09:21;14.30;99.90
20534;DHT22;12929;56.822;26.056;2022-07-29T00:11:49;14.20;99.90
20534;DHT22;12929;56.822;26.056;2022-07-29T00:14:16;14.20;99.90
20534;DHT22;12929;56.822;26.056;2022-07-29T00:16:44;14.20;99.90
20534;DHT22;12929;56.822;26.056;2022-07-29T00:19:12;14.20;99.90
20534;DHT22;12929;56.822;26.056;2022-07-29T00:21:40;14.10;99.90
20534;DHT22;12929;56.822;26.056;2022-07-29T00:24:08;14.10;99.90
20534;DHT22;12929;56.822;26.056;2022-07-29T00:26:35;14.10;99.90
20534;DHT22;12929;56.822;26.056;2022-07-29T00:29:04;14.10;99.90
20534;DHT22;12929;56.822;26.056;2022-07-29T00:31:52;14.00;99.90
20534;DHT22;12929;56.822;26.056;2022-07-29T00:34:19;14.00;99.90
20534;DHT22;12929;56.822;26.056;2022-07-29T00:37:05;14.00;99.90
20534;DHT22;12929;56.822;26.056;2022-07-29T00:39:34;14.00;99.90
20534;DHT22;12929;56.822;26.056;2022-07-29T00:42:05;14.00;99.90
20534;DHT22;12929;56.822;26.056;2022-07-29T00:44:37;14.00;99.90
20534;DHT22;12929;56.822;26.056;2022-07-29T00:47:06;13.90;99.90
20534;DHT22;12929;56.822;26.056;2022-07-29T00:49:34;13.90;99.90
20534;DHT22;12929;56.822;26.056;2022-07-29T00:52:06;13.90;99.90
20534;DHT22;12929;56.822;26.056;2022-07-29T00:54:34;13.80;99.90
20534;DHT22;12929;56.822;26.056;2022-07-29T00:57:11;13.80;99.90
20534;DHT22;12929;56.822;26.056;2022-07-29T00:59:39;13.80;99.90
20534;DHT22;12929;56.822;26.056;2022-07-29T01:02:07;13.80;99.90
20534;DHT22;12929;56.822;26.056;2022-07-29T01:04:35;13.70;99.90
20534;DHT22;12929;56.822;26.056;2022-07-29T01:07:03;13.70;99.90
20534;DHT22;12929;56.822;26.056;2022-07-29T01:09:32;13.70;99.90
20534;DHT22;12929;56.822;26.056;2022-07-29T01:12:25;13.60;99.90
20534;DHT22;12929;56.822;26.056;2022-07-29T01:14:53;13.60;99.90
20534;DHT22;12929;56.822;26.056;2022-07-29T01:17:30;13.60;99.90
20534;DHT22;12929;56.822;26.056;2022-07-29T01:20:26;13.70;99.90
20534;DHT22;12929;56.822;26.056;2022-07-29T01:29:22;13.60;99.90
20534;DHT22;12929;56.822;26.056;2022-07-29T01:37:24;13.60;99.90
20534;DHT22;12929;56.822;26.056;2022-07-29T01:39:55;13.50;99.90
20534;DHT22;12929;56.822;26.056;2022-07-29T01:45:10;13.50;99.90
20534;DHT22;12929;56.822;26.056;2022-07-29T01:47:48;13.50;99.90
20534;DHT22;12929;56.822;26.056;2022-07-29T01:50:18;13.50;99.90
20534;DHT22;12929;56.822;26.056;2022-07-29T01:52:56;13.50;99.90
20534;DHT22;12929;56.822;26.056;2022-07-29T01:55:29;13.50;99.90
20534;DHT22;12929;56.822;26.056;2022-07-29T01:57:59;13.40;99.90
20534;DHT22;12929;56.822;26.056;2022-07-29T02:00:30;13.40;99.90
20534;DHT22;12929;56.822;26.056;2022-07-29T02:03:03;13.40;99.90
20534;DHT22;12929;56.822;26.056;2022-07-29T02:05:33;13.40;99.90
20534;DHT22;12929;56.822;26.056;2022-07-29T02:08:02;13.30;99.90
20534;DHT22;12929;56.822;26.056;2022-07-29T02:10:33;13.30;99.90
20534;DHT22;12929;56.822;26.056;2022-07-29T02:13:03;13.30;99.90
20534;DHT22;12929;56.822;26.056;2022-07-29T02:15:32;13.30;99.90
20534;DHT22;12929;56.822;26.056;2022-07-29T02:18:06;13.30;99.90
20534;DHT22;12929;56.822;26.056;2022-07-29T02:20:36;13.30;99.90
20534;DHT22;12929;56.822;26.056;2022-07-29T02:23:05;13.30;99.90
20534;DHT22;12929;56.822;26.056;2022-07-29T02:25:34;13.20;99.90
20534;DHT22;12929;56.822;26.056;2022-07-29T02:28:06;13.20;99.90
20534;DHT22;12929;56.822;26.056;2022-07-29T02:30:40;13.20;99.90
20534;DHT22;12929;56.822;26.056;2022-07-29T02:33:12;13.20;99.90
20534;DHT22;12929;56.822;26.056;2022-07-29T02:35:41;13.10;99.90
20534;DHT22;12929;56.822;26.056;2022-07-29T02:38:13;13.10;99.90
20534;DHT22;12929;56.822;26.056;2022-07-29T02:41:12;13.10;99.90
20534;DHT22;12929;56.822;26.056;2022-07-29T02:43:43;13.10;99.90
20534;DHT22;12929;56.822;26.056;2022-07-29T02:46:16;13.00;99.90
20534;DHT22;12929;56.822;26.056;2022-07-29T02:49:15;13.10;99.90
20534;DHT22;12929;56.822;26.056;2022-07-29T02:51:46;13.00;99.90
20534;DHT22;12929;56.822;26.056;2022-07-29T02:54:30;13.00;99.90
20534;DHT22;12929;56.822;26.056;2022-07-29T02:57:05;13.00;99.90
20534;DHT22;12929;56.822;26.056;2022-07-29T02:59:36;13.00;99.90
20534;DHT22;12929;56.822;26.056;2022-07-29T03:02:05;13.00;99.90
20534;DHT22;12929;56.822;26.056;2022-07-29T03:04:34;12.90;99.90
20534;DHT22;12929;56.822;26.056;2022-07-29T03:07:03;13.00;99.90
20534;DHT22;12929;56.822;26.056;2022-07-29T03:09:32;12.90;99.90
20534;DHT22;12929;56.822;26.056;2022-07-29T03:12:02;12.90;99.90
20534;DHT22;12929;56.822;26.056;2022-07-29T03:14:31;12.90;99.90
20534;DHT22;12929;56.822;26.056;2022-07-29T03:16:59;13.00;99.90
20534;DHT22;12929;56.822;26.056;2022-07-29T03:19:27;13.00;99.90
20534;DHT22;12929;56.822;26.056;2022-07-29T03:21:57;13.00;99.90
20534;DHT22;12929;56.822;26.056;2022-07-29T03:24:29;12.90;99.90
20534;DHT22;12929;56.822;26.056;2022-07-29T03:26:58;12.90;99.90
20534;DHT22;12929;56.822;26.056;2022-07-29T03:29:26;12.80;99.90
20534;DHT22;12929;56.822;26.056;2022-07-29T03:32:03;12.90;99.90
20534;DHT22;12929;56.822;26.056;2022-07-29T03:34:36;12.90;99.90
20534;DHT22;12929;56.822;26.056;2022-07-29T03:37:05;12.90;99.90
20534;DHT22;12929;56.822;26.056;2022-07-29T03:39:36;12.90;99.90
20534;DHT22;12929;56.822;26.056;2022-07-29T03:42:10;12.90;99.90
20534;DHT22;12929;56.822;26.056;2022-07-29T03:44:40;12.90;99.90
20534;DHT22;12929;56.822;26.056;2022-07-29T03:47:09;12.80;99.90
20534;DHT22;12929;56.822;26.056;2022-07-29T03:49:38;12.80;99.90
20534;DHT22;12929;56.822;26.056;2022-07-29T03:52:08;12.80;99.90
20534;DHT22;12929;56.822;26.056;2022-07-29T03:54:36;12.80;99.90
20534;DHT22;12929;56.822;26.056;2022-07-29T03:57:05;12.90;99.90
20534;DHT22;12929;56.822;26.056;2022-07-29T03:59:34;12.90;99.90
20534;DHT22;12929;56.822;26.056;2022-07-29T04:02:03;12.90;99.90
20534;DHT22;12929;56.822;26.056;2022-07-29T04:04:34;12.90;99.90
20534;DHT22;12929;56.822;26.056;2022-07-29T04:07:03;12.90;99.90
20534;DHT22;12929;56.822;26.056;2022-07-29T04:09:32;12.90;99.90
20534;DHT22;12929;56.822;26.056;2022-07-29T04:12:00;12.80;99.90
20534;DHT22;12929;56.822;26.056;2022-07-29T04:14:34;12.90;99.90
20534;DHT22;12929;56.822;26.056;2022-07-29T04:17:03;12.90;99.90
20534;DHT22;12929;56.822;26.056;2022-07-29T04:19:31;12.90;99.90
20534;DHT22;12929;56.822;26.056;2022-07-29T04:22:00;13.00;99.90
20534;DHT22;12929;56.822;26.056;2022-07-29T04:24:28;13.00;99.90
20534;DHT22;12929;56.822;26.056;2022-07-29T04:26:56;13.00;99.90
20534;DHT22;12929;56.822;26.056;2022-07-29T04:29:23;13.00;99.90
20534;DHT22;12929;56.822;26.056;2022-07-29T04:31:51;13.10;99.90
20534;DHT22;12929;56.822;26.056;2022-07-29T04:34:18;13.10;99.90
20534;DHT22;12929;56.822;26.056;2022-07-29T04:36:47;13.00;99.90
20534;DHT22;12929;56.822;26.056;2022-07-29T04:39:14;13.00;99.90
20534;DHT22;12929;56.822;26.056;2022-07-29T04:41:49;13.00;99.90
20534;DHT22;12929;56.822;26.056;2022-07-29T04:44:18;13.10;99.90
20534;DHT22;12929;56.822;26.056;2022-07-29T04:46:46;13.10;99.90
20534;DHT22;12929;56.822;26.056;2022-07-29T04:49:13;13.00;99.90
20534;DHT22;12929;56.822;26.056;2022-07-29T04:51:42;13.10;99.90
20534;DHT22;12929;56.822;26.056;2022-07-29T04:54:10;13.20;99.90
20534;DHT22;12929;56.822;26.056;2022-07-29T04:56:37;13.20;99.90
20534;DHT22;12929;56.822;26.056;2022-07-29T04:59:05;13.20;99.90
20534;DHT22;12929;56.822;26.056;2022-07-29T05:01:33;13.10;99.90
20534;DHT22;12929;56.822;26.056;2022-07-29T05:04:00;13.10;99.90
20534;DHT22;12929;56.822;26.056;2022-07-29T05:06:29;13.20;99.90
20534;DHT22;12929;56.822;26.056;2022-07-29T05:08:57;13.20;99.90
20534;DHT22;12929;56.822;26.056;2022-07-29T05:11:24;13.20;99.90
20534;DHT22;12929;56.822;26.056;2022-07-29T05:13:56;13.20;99.90
20534;DHT22;12929;56.822;26.056;2022-07-29T05:16:24;13.30;99.90
20534;DHT22;12929;56.822;26.056;2022-07-29T05:18:51;13.20;99.90
20534;DHT22;12929;56.822;26.056;2022-07-29T05:21:19;13.30;99.90
20534;DHT22;12929;56.822;26.056;2022-07-29T05:23:47;13.30;99.90
20534;DHT22;12929;56.822;26.056;2022-07-29T05:26:14;13.40;99.90
20534;DHT22;12929;56.822;26.056;2022-07-29T05:28:42;13.40;99.90
20534;DHT22;12929;56.822;26.056;2022-07-29T05:31:09;13.40;99.90
20534;DHT22;12929;56.822;26.056;2022-07-29T05:33:37;13.40;99.90
20534;DHT22;12929;56.822;26.056;2022-07-29T05:36:05;13.40;99.90
20534;DHT22;12929;56.822;26.056;2022-07-29T05:38:35;13.40;99.90
20534;DHT22;12929;56.822;26.056;2022-07-29T05:41:04;13.40;99.90
20534;DHT22;12929;56.822;26.056;2022-07-29T05:43:32;13.40;99.90
20534;DHT22;12929;56.822;26.056;2022-07-29T05:46:00;13.40;99.90
20534;DHT22;12929;56.822;26.056;2022-07-29T05:48:27;13.40;99.90
20534;DHT22;12929;56.822;26.056;2022-07-29T05:50:55;13.50;99.90
20534;DHT22;12929;56.822;26.056;2022-07-29T05:53:23;13.60;99.90
20534;DHT22;12929;56.822;26.056;2022-07-29T05:55:51;13.60;99.90
20534;DHT22;12929;56.822;26.056;2022-07-29T05:58:19;13.60;99.90
20534;DHT22;12929;56.822;26.056;2022-07-29T06:00:47;13.60;99.90
20534;DHT22;12929;56.822;26.056;2022-07-29T06:03:15;13.60;99.90
20534;DHT22;12929;56.822;26.056;2022-07-29T06:05:42;13.60;99.90
20534;DHT22;12929;56.822;26.056;2022-07-29T06:08:10;13.60;99.90
20534;DHT22;12929;56.822;26.056;2022-07-29T06:10:38;13.60;99.90
20534;DHT22;12929;56.822;26.056;2022-07-29T06:13:05;13.70;99.90
20534;DHT22;12929;56.822;26.056;2022-07-29T06:15:33;13.70;99.90
20534;DHT22;12929;56.822;26.056;2022-07-29T06:18:01;13.80;99.90
20534;DHT22;12929;56.822;26.056;2022-07-29T06:20:30;13.80;99.90
20534;DHT22;12929;56.822;26.056;2022-07-29T06:22:59;13.80;99.90
20534;DHT22;12929;56.822;26.056;2022-07-29T06:25:27;13.80;99.90
20534;DHT22;12929;56.822;26.056;2022-07-29T06:27:59;13.90;99.90
20534;DHT22;12929;56.822;26.056;2022-07-29T06:30:26;13.90;99.90
20534;DHT22;12929;56.822;26.056;2022-07-29T06:32:55;13.90;99.90
20534;DHT22;12929;56.822;26.056;2022-07-29T06:35:23;13.90;99.90
20534;DHT22;12929;56.822;26.056;2022-07-29T06:38:08;13.90;99.90
20534;DHT22;12929;56.822;26.056;2022-07-29T06:40:56;14.00;99.90
20534;DHT22;12929;56.822;26.056;2022-07-29T06:43:32;14.10;99.90
20534;DHT22;12929;56.822;26.056;2022-07-29T06:46:06;14.20;99.90
20534;DHT22;12929;56.822;26.056;2022-07-29T06:48:35;14.30;99.90
20534;DHT22;12929;56.822;26.056;2022-07-29T06:51:06;14.30;99.90
20534;DHT22;12929;56.822;26.056;2022-07-29T06:53:34;14.60;99.90
20534;DHT22;12929;56.822;26.056;2022-07-29T06:56:03;14.60;99.90
20534;DHT22;12929;56.822;26.056;2022-07-29T06:58:31;14.50;99.90
20534;DHT22;12929;56.822;26.056;2022-07-29T07:01:02;14.40;99.90
20534;DHT22;12929;56.822;26.056;2022-07-29T07:03:30;14.30;99.90
20534;DHT22;12929;56.822;26.056;2022-07-29T07:05:58;14.40;99.90
20534;DHT22;12929;56.822;26.056;2022-07-29T07:08:26;14.50;99.90
20534;DHT22;12929;56.822;26.056;2022-07-29T07:10:53;14.40;99.90
20534;DHT22;12929;56.822;26.056;2022-07-29T07:13:22;14.50;99.90
20534;DHT22;12929;56.822;26.056;2022-07-29T07:15:50;14.60;99.90
20534;DHT22;12929;56.822;26.056;2022-07-29T07:18:19;14.60;99.90
20534;DHT22;12929;56.822;26.056;2022-07-29T07:20:46;14.70;99.90
20534;DHT22;12929;56.822;26.056;2022-07-29T07:23:14;14.80;99.90
20534;DHT22;12929;56.822;26.056;2022-07-29T07:25:42;14.80;99.90
20534;DHT22;12929;56.822;26.056;2022-07-29T07:28:10;14.80;99.90
20534;DHT22;12929;56.822;26.056;2022-07-29T07:30:37;14.90;99.90
20534;DHT22;12929;56.822;26.056;2022-07-29T07:33:05;15.10;99.90
20534;DHT22;12929;56.822;26.056;2022-07-29T07:35:33;15.10;99.90
20534;DHT22;12929;56.822;26.056;2022-07-29T07:38:00;15.20;99.90
20534;DHT22;12929;56.822;26.056;2022-07-29T07:40:28;15.10;99.90
20534;DHT22;12929;56.822;26.056;2022-07-29T07:42:56;15.00;99.90
20534;DHT22;12929;56.822;26.056;2022-07-29T07:45:24;14.90;99.90
20534;DHT22;12929;56.822;26.056;2022-07-29T07:47:51;14.90;99.90
20534;DHT22;12929;56.822;26.056;2022-07-29T07:50:19;15.00;99.90
20534;DHT22;12929;56.822;26.056;2022-07-29T07:52:52;15.20;99.90
20534;DHT22;12929;56.822;26.056;2022-07-29T07:55:20;15.20;99.90
20534;DHT22;12929;56.822;26.056;2022-07-29T07:57:48;15.10;99.90
20534;DHT22;12929;56.822;26.056;2022-07-29T08:00:17;15.10;99.90
20534;DHT22;12929;56.822;26.056;2022-07-29T08:02:49;15.20;99.90
20534;DHT22;12929;56.822;26.056;2022-07-29T08:05:17;15.20;99.90
20534;DHT22;12929;56.822;26.056;2022-07-29T08:07:46;15.30;99.90
20534;DHT22;12929;56.822;26.056;2022-07-29T08:10:16;15.40;99.90
20534;DHT22;12929;56.822;26.056;2022-07-29T08:13:08;15.50;99.90
20534;DHT22;12929;56.822;26.056;2022-07-29T08:15:36;15.60;99.90
20534;DHT22;12929;56.822;26.056;2022-07-29T08:18:03;15.50;99.90
20534;DHT22;12929;56.822;26.056;2022-07-29T08:20:36;15.40;99.90
20534;DHT22;12929;56.822;26.056;2022-07-29T08:23:07;15.40;99.90
20534;DHT22;12929;56.822;26.056;2022-07-29T08:25:36;15.60;99.90
20534;DHT22;12929;56.822;26.056;2022-07-29T08:28:06;15.80;99.90
20534;DHT22;12929;56.822;26.056;2022-07-29T08:30:34;15.80;99.90
20534;DHT22;12929;56.822;26.056;2022-07-29T08:33:02;15.70;99.90
20534;DHT22;12929;56.822;26.056;2022-07-29T08:35:30;15.60;99.90
20534;DHT22;12929;56.822;26.056;2022-07-29T08:38:02;15.60;99.90
20534;DHT22;12929;56.822;26.056;2022-07-29T08:40:31;15.80;99.90
20534;DHT22;12929;56.822;26.056;2022-07-29T08:43:07;15.80;99.90
20534;DHT22;12929;56.822;26.056;2022-07-29T08:45:48;16.00;99.90
20534;DHT22;12929;56.822;26.056;2022-07-29T08:48:20;16.20;99.90
20534;DHT22;12929;56.822;26.056;2022-07-29T08:50:52;16.40;99.90
20534;DHT22;12929;56.822;26.056;2022-07-29T08:53:21;16.20;99.90
20534;DHT22;12929;56.822;26.056;2022-07-29T08:55:54;16.20;99.90
20534;DHT22;12929;56.822;26.056;2022-07-29T08:58:23;16.30;99.90
20534;DHT22;12929;56.822;26.056;2022-07-29T09:00:55;16.50;99.90
20534;DHT22;12929;56.822;26.056;2022-07-29T09:03:31;16.40;99.90
20534;DHT22;12929;56.822;26.056;2022-07-29T09:06:01;16.40;99.90
20534;DHT22;12929;56.822;26.056;2022-07-29T09:08:35;16.40;99.90
20534;DHT22;12929;56.822;26.056;2022-07-29T09:11:06;16.20;99.90
20534;DHT22;12929;56.822;26.056;2022-07-29T09:13:36;16.20;99.90
20534;DHT22;12929;56.822;26.056;2022-07-29T09:16:05;16.20;99.90
20534;DHT22;12929;56.822;26.056;2022-07-29T09:18:41;16.40;99.90
20534;DHT22;12929;56.822;26.056;2022-07-29T09:21:17;16.60;99.90
20534;DHT22;12929;56.822;26.056;2022-07-29T09:24:14;16.90;99.90
20534;DHT22;12929;56.822;26.056;2022-07-29T09:26:46;17.00;99.90
20534;DHT22;12929;56.822;26.056;2022-07-29T09:29:19;17.00;99.90
20534;DHT22;12929;56.822;26.056;2022-07-29T09:31:51;17.10;99.90
20534;DHT22;12929;56.822;26.056;2022-07-29T09:34:25;17.20;99.90
20534;DHT22;12929;56.822;26.056;2022-07-29T09:37:04;17.20;99.90
20534;DHT22;12929;56.822;26.056;2022-07-29T09:39:40;17.10;99.90
20534;DHT22;12929;56.822;26.056;2022-07-29T09:42:29;16.90;99.90
20534;DHT22;12929;56.822;26.056;2022-07-29T09:45:02;16.80;99.90
20534;DHT22;12929;56.822;26.056;2022-07-29T09:47:47;16.70;99.90
20534;DHT22;12929;56.822;26.056;2022-07-29T09:50:35;16.70;99.90
20534;DHT22;12929;56.822;26.056;2022-07-29T09:53:03;16.80;99.90
20534;DHT22;12929;56.822;26.056;2022-07-29T09:55:31;17.10;99.90
20534;DHT22;12929;56.822;26.056;2022-07-29T09:58:27;17.30;99.90
20534;DHT22;12929;56.822;26.056;2022-07-29T10:00:57;17.20;99.90
20534;DHT22;12929;56.822;26.056;2022-07-29T10:03:25;17.40;99.90
20534;DHT22;12929;56.822;26.056;2022-07-29T10:06:07;17.40;99.90
20534;DHT22;12929;56.822;26.056;2022-07-29T10:08:36;17.70;99.90
20534;DHT22;12929;56.822;26.056;2022-07-29T10:11:17;17.70;99.90
20534;DHT22;12929;56.822;26.056;2022-07-29T10:13:47;17.70;99.90
20534;DHT22;12929;56.822;26.056;2022-07-29T10:16:16;17.60;99.90
20534;DHT22;12929;56.822;26.056;2022-07-29T10:18:45;17.60;99.90
20534;DHT22;12929;56.822;26.056;2022-07-29T10:21:14;17.80;99.90
20534;DHT22;12929;56.822;26.056;2022-07-29T10:24:02;17.70;99.90
20534;DHT22;12929;56.822;26.056;2022-07-29T10:26:30;17.90;99.90
20534;DHT22;12929;56.822;26.056;2022-07-29T10:29:01;17.90;99.90
20534;DHT22;12929;56.822;26.056;2022-07-29T10:40:54;17.60;99.90
20534;DHT22;12929;56.822;26.056;2022-07-29T10:43:37;17.50;99.90
20534;DHT22;12929;56.822;26.056;2022-07-29T10:46:11;17.60;99.90
20534;DHT22;12929;56.822;26.056;2022-07-29T10:49:16;17.40;99.90
20534;DHT22;12929;56.822;26.056;2022-07-29T10:52:08;17.40;99.90
20534;DHT22;12929;56.822;26.056;2022-07-29T10:54:44;17.70;99.90
20534;DHT22;12929;56.822;26.056;2022-07-29T10:59:47;18.10;99.90
20534;DHT22;12929;56.822;26.056;2022-07-29T11:05:17;18.50;99.90
20534;DHT22;12929;56.822;26.056;2022-07-29T11:10:53;18.20;99.90
20534;DHT22;12929;56.822;26.056;2022-07-29T11:16:14;17.80;99.90
20534;DHT22;12929;56.822;26.056;2022-07-29T11:21:52;17.80;99.90
20534;DHT22;12929;56.822;26.056;2022-07-29T11:24:28;18.20;99.90
20534;DHT22;12929;56.822;26.056;2022-07-29T11:27:19;18.50;99.90
20534;DHT22;12929;56.822;26.056;2022-07-29T11:29:56;18.50;99.90
20534;DHT22;12929;56.822;26.056;2022-07-29T11:32:39;18.70;99.90
20534;DHT22;12929;56.822;26.056;2022-07-29T11:35:12;18.90;99.90
20534;DHT22;12929;56.822;26.056;2022-07-29T11:40:32;19.10;99.90
20534;DHT22;12929;56.822;26.056;2022-07-29T11:42:59;19.00;99.90
20534;DHT22;12929;56.822;26.056;2022-07-29T11:45:46;19.10;99.90
20534;DHT22;12929;56.822;26.056;2022-07-29T11:48:18;19.10;99.90
20534;DHT22;12929;56.822;26.056;2022-07-29T11:50:59;19.30;99.90
20534;DHT22;12929;56.822;26.056;2022-07-29T11:53:27;19.20;99.90
20534;DHT22;12929;56.822;26.056;2022-07-29T11:55:59;19.20;99.90
20534;DHT22;12929;56.822;26.056;2022-07-29T11:58:30;19.40;99.90
20534;DHT22;12929;56.822;26.056;2022-07-29T12:00:59;19.60;99.90
20534;DHT22;12929;56.822;26.056;2022-07-29T12:03:31;19.60;99.90
20534;DHT22;12929;56.822;26.056;2022-07-29T12:06:12;19.40;99.90
20534;DHT22;12929;56.822;26.056;2022-07-29T12:09:09;19.10;99.90
20534;DHT22;12929;56.822;26.056;2022-07-29T12:11:40;19.00;99.90
20534;DHT22;12929;56.822;26.056;2022-07-29T12:14:30;19.30;99.90
20534;DHT22;12929;56.822;26.056;2022-07-29T12:17:00;19.20;99.90
20534;DHT22;12929;56.822;26.056;2022-07-29T12:19:28;19.10;99.90
20534;DHT22;12929;56.822;26.056;2022-07-29T12:21:57;19.00;99.90
20534;DHT22;12929;56.822;26.056;2022-07-29T12:24:43;19.20;99.90
20534;DHT22;12929;56.822;26.056;2022-07-29T12:27:12;19.50;99.90
20534;DHT22;12929;56.822;26.056;2022-07-29T12:29:44;19.70;99.90
20534;DHT22;12929;56.822;26.056;2022-07-29T12:32:15;19.80;99.90
20534;DHT22;12929;56.822;26.056;2022-07-29T12:34:46;19.90;99.90
20534;DHT22;12929;56.822;26.056;2022-07-29T12:37:14;19.70;99.90
20534;DHT22;12929;56.822;26.056;2022-07-29T12:39:43;19.40;99.90
20534;DHT22;12929;56.822;26.056;2022-07-29T12:42:15;19.30;99.90
20534;DHT22;12929;56.822;26.056;2022-07-29T12:44:49;19.60;99.90
20534;DHT22;12929;56.822;26.056;2022-07-29T12:47:18;19.70;99.90
20534;DHT22;12929;56.822;26.056;2022-07-29T12:49:47;19.60;99.90
20534;DHT22;12929;56.822;26.056;2022-07-29T12:52:32;19.30;99.90
20534;DHT22;12929;56.822;26.056;2022-07-29T12:55:01;19.50;99.90
20534;DHT22;12929;56.822;26.056;2022-07-29T12:57:28;19.30;99.90
20534;DHT22;12929;56.822;26.056;2022-07-29T13:00:08;19.40;99.90
20534;DHT22;12929;56.822;26.056;2022-07-29T13:02:39;19.70;99.90
20534;DHT22;12929;56.822;26.056;2022-07-29T13:05:10;19.90;99.90
20534;DHT22;12929;56.822;26.056;2022-07-29T13:07:39;19.70;99.90
20534;DHT22;12929;56.822;26.056;2022-07-29T13:10:23;19.50;99.90
20534;DHT22;12929;56.822;26.056;2022-07-29T13:13:08;19.40;99.90
20534;DHT22;12929;56.822;26.056;2022-07-29T13:15:39;19.40;99.90
20534;DHT22;12929;56.822;26.056;2022-07-29T13:18:31;19.50;99.90
20534;DHT22;12929;56.822;26.056;2022-07-29T13:21:14;19.70;99.90
20534;DHT22;12929;56.822;26.056;2022-07-29T13:23:42;19.70;99.90
20534;DHT22;12929;56.822;26.056;2022-07-29T13:26:10;19.40;99.90
20534;DHT22;12929;56.822;26.056;2022-07-29T13:28:43;19.30;99.90
20534;DHT22;12929;56.822;26.056;2022-07-29T13:31:11;19.20;99.90
20534;DHT22;12929;56.822;26.056;2022-07-29T13:33:39;19.30;99.90
20534;DHT22;12929;56.822;26.056;2022-07-29T13:36:06;19.30;99.90
20534;DHT22;12929;56.822;26.056;2022-07-29T13:38:34;19.50;99.90
20534;DHT22;12929;56.822;26.056;2022-07-29T13:41:02;19.90;99.90
20534;DHT22;12929;56.822;26.056;2022-07-29T13:43:29;19.70;99.90
20534;DHT22;12929;56.822;26.056;2022-07-29T13:45:57;19.60;99.90
20534;DHT22;12929;56.822;26.056;2022-07-29T13:48:25;19.70;99.90
20534;DHT22;12929;56.822;26.056;2022-07-29T13:50:52;19.80;99.90
20534;DHT22;12929;56.822;26.056;2022-07-29T13:53:20;19.90;99.90
20534;DHT22;12929;56.822;26.056;2022-07-29T13:55:53;19.80;99.90
20534;DHT22;12929;56.822;26.056;2022-07-29T13:58:21;19.50;99.90
20534;DHT22;12929;56.822;26.056;2022-07-29T14:00:49;19.40;99.90
20534;DHT22;12929;56.822;26.056;2022-07-29T14:03:17;19.30;99.90
20534;DHT22;12929;56.822;26.056;2022-07-29T14:05:44;19.20;99.90
20534;DHT22;12929;56.822;26.056;2022-07-29T14:08:12;19.20;99.90
20534;DHT22;12929;56.822;26.056;2022-07-29T14:10:39;19.30;99.90
20534;DHT22;12929;56.822;26.056;2022-07-29T14:13:07;19.40;99.90
20534;DHT22;12929;56.822;26.056;2022-07-29T14:15:52;19.40;99.90
20534;DHT22;12929;56.822;26.056;2022-07-29T14:18:20;19.20;99.90
20534;DHT22;12929;56.822;26.056;2022-07-29T14:20:48;19.10;99.90
20534;DHT22;12929;56.822;26.056;2022-07-29T14:23:17;19.10;99.90
20534;DHT22;12929;56.822;26.056;2022-07-29T14:25:46;19.40;99.90
20534;DHT22;12929;56.822;26.056;2022-07-29T14:28:15;19.80;99.90
20534;DHT22;12929;56.822;26.056;2022-07-29T14:30:43;20.00;99.90
20534;DHT22;12929;56.822;26.056;2022-07-29T14:33:11;20.30;99.90
20534;DHT22;12929;56.822;26.056;2022-07-29T14:35:38;20.40;99.90
20534;DHT22;12929;56.822;26.056;2022-07-29T14:38:06;20.50;99.90
20534;DHT22;12929;56.822;26.056;2022-07-29T14:40:34;20.40;99.90
20534;DHT22;12929;56.822;26.056;2022-07-29T14:43:02;20.40;99.90
20534;DHT22;12929;56.822;26.056;2022-07-29T14:45:30;20.40;99.90
20534;DHT22;12929;56.822;26.056;2022-07-29T14:47:59;20.40;99.90
20534;DHT22;12929;56.822;26.056;2022-07-29T14:50:27;20.30;99.90
20534;DHT22;12929;56.822;26.056;2022-07-29T14:52:59;20.10;99.90
20534;DHT22;12929;56.822;26.056;2022-07-29T14:55:27;20.10;99.90
20534;DHT22;12929;56.822;26.056;2022-07-29T14:57:55;20.40;99.90
20534;DHT22;12929;56.822;26.056;2022-07-29T15:00:36;20.40;99.90
20534;DHT22;12929;56.822;26.056;2022-07-29T15:03:05;20.20;99.90
20534;DHT22;12929;56.822;26.056;2022-07-29T15:05:37;20.00;99.90
20534;DHT22;12929;56.822;26.056;2022-07-29T15:08:06;20.10;99.90
20534;DHT22;12929;56.822;26.056;2022-07-29T15:10:35;20.30;99.90
20534;DHT22;12929;56.822;26.056;2022-07-29T15:13:03;20.40;99.90
20534;DHT22;12929;56.822;26.056;2022-07-29T15:15:30;20.60;99.90
20534;DHT22;12929;56.822;26.056;2022-07-29T15:17:58;20.80;99.90
20534;DHT22;12929;56.822;26.056;2022-07-29T15:20:25;20.80;99.90
20534;DHT22;12929;56.822;26.056;2022-07-29T15:22:55;20.80;99.90
20534;DHT22;12929;56.822;26.056;2022-07-29T15:25:24;20.60;99.90
20534;DHT22;12929;56.822;26.056;2022-07-29T15:27:54;20.50;99.90
20534;DHT22;12929;56.822;26.056;2022-07-29T15:30:29;20.70;99.90
20534;DHT22;12929;56.822;26.056;2022-07-29T15:33:01;20.90;99.90
20534;DHT22;12929;56.822;26.056;2022-07-29T15:35:30;21.00;99.90
20534;DHT22;12929;56.822;26.056;2022-07-29T15:37:58;20.90;99.90
20534;DHT22;12929;56.822;26.056;2022-07-29T15:40:26;20.70;99.90
20534;DHT22;12929;56.822;26.056;2022-07-29T15:42:53;20.60;99.90
20534;DHT22;12929;56.822;26.056;2022-07-29T15:45:21;20.40;99.90
20534;DHT22;12929;56.822;26.056;2022-07-29T15:47:48;20.50;99.90
20534;DHT22;12929;56.822;26.056;2022-07-29T15:50:16;20.50;99.90
20534;DHT22;12929;56.822;26.056;2022-07-29T15:52:44;20.40;99.90
20534;DHT22;12929;56.822;26.056;2022-07-29T15:55:13;20.40;99.90
20534;DHT22;12929;56.822;26.056;2022-07-29T15:57:41;20.30;99.90
20534;DHT22;12929;56.822;26.056;2022-07-29T16:00:10;20.30;99.90
20534;DHT22;12929;56.822;26.056;2022-07-29T16:02:38;20.20;99.90
20534;DHT22;12929;56.822;26.056;2022-07-29T16:05:05;20.20;99.90
20534;DHT22;12929;56.822;26.056;2022-07-29T16:07:35;20.20;99.90
20534;DHT22;12929;56.822;26.056;2022-07-29T16:10:04;20.10;99.90
20534;DHT22;12929;56.822;26.056;2022-07-29T16:12:34;20.00;99.90
20534;DHT22;12929;56.822;26.056;2022-07-29T16:15:01;19.70;99.90
20534;DHT22;12929;56.822;26.056;2022-07-29T16:17:36;19.60;99.90
20534;DHT22;12929;56.822;26.056;2022-07-29T16:20:04;19.40;99.90
20534;DHT22;12929;56.822;26.056;2022-07-29T16:22:32;19.30;99.90